To NAV CANADA Home Page Login to a new session Search on AWWS site Feedback and Comments Disclaimer Vers la page française équivalente Tips FAQ What's new on the site To the Forecasts and Observations / NOTAM section To "File a Flight Plan" website Publications and other links Update of the User's profile FIC Telephone Numbers My Weather Data Folder Route Weather Data Regional Weather Data Local Weather Data To the Forecasts and Observations / NOTAM section
Request Generated 02/06/2016 at 15:11:00 UTC . Weather information available at that time is displayed.

METAR/TAF

SLAVE LAKE/AB    (show WxCam)

METAR CYZH 061500Z AUTO 28033G43KT 9SM BKN065 OVC240 05/M03 A2938 RMK
SLP976=
SPECI CYZH 061454Z AUTO 28036G43KT 9SM SCT055 OVC068 05/M03 A2938 RMK
SLP973=
METAR CYZH 061400Z AUTO 27026G46KT 9SM OVC050 05/M03 A2937 RMK
SLP971=
METAR CYZH 061300Z AUTO 28027G41KT 9SM OVC055 06/M02 A2936 RMK
SLP965=

TAF CYZH 061238Z 0613/0701 28028G38KT P6SM BKN080 TEMPO 0613/0617
28040G50KT P6SM -SHRASN BKN040
FM061700 28035G45KT P6SM SCT025 OVC050 TEMPO 0617/0701 30045G55KT
4SM -SHSN VV030
RMK FCST BASED ON AUTO OBS. NXT FCST BY 061900Z=
Your time UTC time
Weather data provided by Environment Canada and NAV CANADA